createdAt,value
2023-03-30T00:00:58.869Z,18.55
2023-03-30T00:03:25.275Z,18.53
2023-03-30T00:05:51.801Z,18.51
2023-03-30T00:08:18.089Z,18.50
2023-03-30T00:10:44.298Z,18.48
2023-03-30T00:13:10.599Z,18.47
2023-03-30T00:15:36.840Z,18.45
2023-03-30T00:18:03.085Z,18.44
2023-03-30T00:20:29.556Z,18.41
2023-03-30T00:22:55.924Z,18.39
2023-03-30T00:25:22.147Z,18.38
2023-03-30T00:27:48.385Z,18.36
2023-03-30T00:30:14.616Z,18.34
2023-03-30T00:32:40.921Z,18.33
2023-03-30T00:35:07.200Z,18.31
2023-03-30T00:37:33.507Z,18.29
2023-03-30T00:39:59.747Z,18.28
2023-03-30T00:42:26.280Z,18.27
2023-03-30T00:44:52.564Z,18.23
2023-03-30T00:47:18.788Z,18.22
2023-03-30T00:49:45.149Z,18.20
2023-03-30T00:52:11.573Z,18.19
2023-03-30T00:54:38.063Z,18.16
2023-03-30T00:57:04.342Z,18.14
2023-03-30T00:59:30.575Z,18.13
2023-03-30T01:01:56.889Z,18.11
2023-03-30T01:04:23.143Z,18.08
2023-03-30T01:06:49.377Z,18.07
2023-03-30T01:09:15.646Z,18.04
2023-03-30T01:11:41.853Z,18.03
2023-03-30T01:14:08.075Z,18.00
2023-03-30T01:16:34.782Z,17.98
2023-03-30T01:19:00.958Z,17.97
2023-03-30T01:21:27.172Z,17.95
2023-03-30T01:23:53.476Z,17.92
2023-03-30T01:26:19.735Z,17.89
2023-03-30T01:28:45.939Z,17.88
2023-03-30T01:31:12.227Z,17.85
2023-03-30T01:33:38.623Z,17.84
2023-03-30T01:36:06.110Z,17.82
2023-03-30T01:38:32.513Z,17.79
2023-03-30T01:40:59.250Z,17.78
2023-03-30T01:43:26.901Z,17.75
2023-03-30T01:45:53.298Z,17.73
2023-03-30T01:48:19.731Z,17.72
2023-03-30T01:50:46.076Z,17.71
2023-03-30T01:53:12.445Z,17.68
2023-03-30T01:55:43.112Z,17.66
2023-03-30T01:58:09.889Z,17.58
2023-03-30T02:00:36.326Z,17.63
2023-03-30T02:03:02.765Z,17.61
2023-03-30T02:05:29.133Z,17.59
2023-03-30T02:07:55.444Z,17.58
2023-03-30T02:10:21.929Z,17.56
2023-03-30T02:12:48.239Z,17.55
2023-03-30T02:15:14.738Z,17.54
2023-03-30T02:17:41.014Z,17.52
2023-03-30T02:20:08.262Z,17.51
2023-03-30T02:22:34.458Z,17.50
2023-03-30T02:25:00.680Z,17.49
2023-03-30T02:27:27.423Z,17.47
2023-03-30T02:29:53.789Z,17.45
2023-03-30T02:32:20.380Z,17.44
2023-03-30T02:34:46.819Z,17.43
2023-03-30T02:37:13.206Z,17.41
2023-03-30T02:39:39.529Z,17.41
2023-03-30T02:42:08.198Z,17.39
2023-03-30T02:44:34.639Z,17.36
2023-03-30T02:47:01.002Z,17.36
2023-03-30T02:49:27.707Z,17.34
2023-03-30T02:51:54.029Z,17.32
2023-03-30T02:54:20.266Z,17.31
2023-03-30T02:56:46.723Z,17.29
2023-03-30T02:59:13.144Z,17.27
2023-03-30T03:01:39.434Z,17.24
2023-03-30T03:04:05.850Z,17.24
2023-03-30T03:06:32.328Z,17.22
2023-03-30T03:09:01.201Z,17.22
2023-03-30T03:11:27.650Z,17.20
2023-03-30T03:13:53.955Z,17.18
2023-03-30T03:16:20.448Z,17.18
2023-03-30T03:18:46.858Z,17.16
2023-03-30T03:21:13.214Z,17.16
2023-03-30T03:23:39.499Z,17.14
2023-03-30T03:26:05.865Z,17.13
2023-03-30T03:28:32.274Z,17.13
2023-03-30T03:30:58.709Z,17.13
2023-03-30T03:33:25.122Z,17.12
2023-03-30T03:35:52.792Z,17.11
2023-03-30T03:38:19.253Z,17.10
2023-03-30T03:40:45.607Z,17.10
2023-03-30T03:43:11.876Z,17.09
2023-03-30T03:45:38.241Z,17.09
2023-03-30T03:48:04.745Z,17.07
2023-03-30T03:50:32.455Z,17.06
2023-03-30T03:52:58.853Z,17.04
2023-03-30T03:55:25.388Z,17.03
2023-03-30T03:57:51.715Z,17.03
2023-03-30T04:00:18.227Z,17.02
2023-03-30T04:02:44.795Z,17.02
2023-03-30T04:05:11.161Z,17.00
2023-03-30T04:07:37.831Z,17.00
2023-03-30T04:10:04.050Z,17.00
2023-03-30T04:12:30.383Z,17.01
2023-03-30T04:14:56.833Z,17.01
2023-03-30T04:17:23.099Z,17.00
2023-03-30T04:19:49.678Z,17.00
2023-03-30T04:22:15.931Z,16.99
2023-03-30T04:24:42.187Z,16.99
2023-03-30T04:27:08.457Z,16.98
2023-03-30T04:29:34.695Z,16.99
2023-03-30T04:32:01.379Z,16.97
2023-03-30T04:34:27.635Z,16.96
2023-03-30T04:36:53.832Z,16.96
2023-03-30T04:39:20.381Z,16.95
2023-03-30T04:41:46.616Z,16.94
2023-03-30T04:44:12.904Z,16.93
2023-03-30T04:46:39.164Z,16.94
2023-03-30T04:49:05.390Z,16.93
2023-03-30T04:51:31.630Z,16.92
2023-03-30T04:53:57.910Z,16.92
2023-03-30T04:56:24.544Z,16.92
2023-03-30T04:58:50.835Z,16.90
2023-03-30T05:01:17.181Z,16.90
2023-03-30T05:03:43.554Z,16.89
2023-03-30T05:06:09.778Z,16.89
2023-03-30T05:08:35.987Z,16.90
2023-03-30T05:11:02.502Z,16.90
2023-03-30T05:13:29.073Z,16.89
2023-03-30T05:15:55.376Z,16.90
2023-03-30T05:18:21.666Z,16.91
2023-03-30T05:20:47.965Z,16.91
2023-03-30T05:23:14.297Z,16.92
2023-03-30T05:25:40.630Z,16.92
2023-03-30T05:28:07.030Z,16.92
2023-03-30T05:30:33.390Z,16.93
2023-03-30T05:32:59.765Z,16.97
2023-03-30T05:35:26.181Z,17.00
2023-03-30T05:37:52.651Z,17.09
2023-03-30T05:40:19.044Z,17.16
2023-03-30T05:42:45.469Z,17.23
2023-03-30T05:45:11.858Z,17.30
2023-03-30T05:47:40.643Z,17.49
2023-03-30T05:50:07.070Z,17.72
2023-03-30T05:52:33.396Z,17.89
2023-03-30T05:54:59.873Z,18.05
2023-03-30T05:57:26.432Z,18.18
2023-03-30T05:59:52.854Z,18.31
2023-03-30T06:02:19.143Z,18.40
2023-03-30T06:04:45.541Z,18.51
2023-03-30T06:07:12.094Z,18.62
2023-03-30T06:09:38.464Z,18.75
2023-03-30T06:12:04.895Z,18.88
2023-03-30T06:14:31.318Z,18.96
2023-03-30T06:16:57.782Z,19.05
2023-03-30T06:19:24.368Z,19.09
2023-03-30T06:21:50.664Z,19.12
2023-03-30T06:24:16.966Z,19.13
2023-03-30T06:26:43.315Z,19.16
2023-03-30T06:35:03.546Z,19.24
2023-03-30T06:37:32.307Z,19.25
2023-03-30T06:39:58.761Z,19.26
2023-03-30T06:42:25.130Z,19.27
2023-03-30T06:44:51.530Z,19.30
2023-03-30T06:47:17.971Z,19.32
2023-03-30T06:49:44.385Z,19.34
2023-03-30T06:52:10.884Z,19.36
2023-03-30T06:54:37.304Z,19.39
2023-03-30T06:57:03.720Z,19.40
2023-03-30T06:59:33.162Z,19.42
2023-03-30T07:02:00.763Z,19.44
2023-03-30T07:04:27.253Z,19.45
2023-03-30T07:06:53.685Z,19.46
2023-03-30T07:09:20.168Z,19.46
2023-03-30T07:11:47.289Z,19.48
2023-03-30T07:14:13.758Z,19.50
2023-03-30T07:16:40.366Z,19.53
2023-03-30T07:19:06.768Z,19.54
2023-03-30T07:21:33.152Z,19.55
2023-03-30T07:24:09.802Z,19.56
2023-03-30T07:26:36.176Z,19.57
2023-03-30T07:29:02.684Z,19.56
2023-03-30T07:31:29.128Z,19.57
2023-03-30T07:33:55.511Z,19.58
2023-03-30T07:36:21.880Z,19.60
2023-03-30T07:38:48.304Z,19.60
2023-03-30T07:41:14.668Z,19.59
2023-03-30T07:43:41.154Z,19.60
2023-03-30T07:46:07.512Z,19.61
2023-03-30T07:48:37.540Z,19.61
2023-03-30T07:51:04.107Z,19.62
2023-03-30T07:53:32.532Z,19.63
2023-03-30T07:55:59.535Z,19.64
2023-03-30T07:58:25.848Z,19.66
2023-03-30T08:00:52.244Z,19.70
2023-03-30T08:03:18.868Z,19.70
2023-03-30T08:05:45.436Z,19.69
2023-03-30T08:08:12.358Z,19.68
2023-03-30T08:10:38.767Z,19.69
2023-03-30T08:13:05.208Z,19.73
2023-03-30T08:15:31.602Z,19.78
2023-03-30T08:17:58.135Z,19.78
2023-03-30T08:20:24.680Z,19.78
2023-03-30T08:22:51.148Z,19.78
2023-03-30T08:25:17.636Z,19.80
2023-03-30T08:27:44.112Z,19.80
2023-03-30T08:30:10.510Z,19.81
2023-03-30T08:32:36.890Z,19.82
2023-03-30T08:35:03.286Z,19.84
2023-03-30T08:37:29.771Z,19.84
2023-03-30T08:39:56.220Z,19.98
2023-03-30T08:42:22.715Z,20.23
2023-03-30T08:44:49.250Z,20.74
2023-03-30T08:47:15.591Z,21.51
2023-03-30T08:49:47.360Z,21.74
2023-03-30T08:52:16.985Z,21.72
2023-03-30T08:54:46.386Z,21.70
2023-03-30T08:57:12.863Z,22.16
2023-03-30T08:59:39.290Z,22.52
2023-03-30T09:02:07.614Z,22.62
2023-03-30T09:04:34.043Z,22.87
2023-03-30T09:07:01.968Z,22.94
2023-03-30T09:09:28.309Z,22.94
2023-03-30T09:11:57.785Z,22.91
2023-03-30T09:14:27.352Z,22.82
2023-03-30T09:16:53.944Z,22.72
2023-03-30T09:19:21.802Z,22.57
2023-03-30T09:21:48.480Z,22.41
2023-03-30T09:24:14.929Z,22.17
2023-03-30T09:26:41.423Z,21.94
2023-03-30T09:29:07.748Z,21.79
2023-03-30T09:31:34.098Z,21.72
2023-03-30T09:34:04.915Z,21.73
2023-03-30T09:36:32.884Z,21.77
2023-03-30T09:38:59.262Z,21.76
2023-03-30T09:41:25.734Z,21.74
2023-03-30T09:43:52.106Z,21.75
2023-03-30T09:46:18.618Z,21.77
2023-03-30T09:48:44.955Z,21.76
2023-03-30T09:51:11.526Z,21.75
2023-03-30T09:53:37.838Z,21.75
2023-03-30T09:56:04.430Z,21.78
2023-03-30T09:58:30.990Z,21.81
2023-03-30T10:00:57.296Z,21.83
2023-03-30T10:03:23.699Z,21.86
2023-03-30T10:05:50.182Z,21.87
2023-03-30T10:08:16.643Z,21.85
2023-03-30T10:10:43.124Z,21.86
2023-03-30T10:13:10.240Z,21.86
2023-03-30T10:15:48.257Z,21.86
2023-03-30T10:18:14.637Z,21.86
2023-03-30T10:20:40.954Z,21.85
2023-03-30T10:23:07.202Z,21.85
2023-03-30T10:25:33.656Z,21.85
2023-03-30T10:27:59.984Z,21.85
2023-03-30T10:30:26.317Z,21.89
2023-03-30T10:32:52.874Z,21.91
2023-03-30T10:35:19.248Z,21.91
2023-03-30T10:37:45.603Z,21.96
2023-03-30T10:40:11.927Z,21.98
2023-03-30T10:42:38.289Z,21.96
2023-03-30T10:45:04.586Z,22.00
2023-03-30T10:47:31.218Z,22.07
2023-03-30T10:49:57.686Z,22.05
2023-03-30T10:52:24.092Z,22.02
2023-03-30T10:54:50.580Z,22.04
2023-03-30T10:57:16.912Z,22.05
2023-03-30T10:59:43.487Z,22.11
2023-03-30T11:02:09.798Z,22.11
2023-03-30T11:04:36.113Z,22.10
2023-03-30T11:07:02.390Z,22.01
2023-03-30T11:09:34.607Z,21.92
2023-03-30T11:12:00.924Z,21.86
2023-03-30T11:14:27.415Z,21.83
2023-03-30T11:16:56.790Z,21.81
2023-03-30T11:19:25.547Z,21.80
2023-03-30T11:21:51.994Z,21.75
2023-03-30T11:24:18.430Z,21.73
2023-03-30T11:26:44.755Z,21.69
2023-03-30T11:29:11.048Z,21.66
2023-03-30T11:31:40.483Z,21.63
2023-03-30T11:34:06.812Z,21.61
2023-03-30T11:36:33.410Z,21.58
2023-03-30T11:39:00.510Z,21.56
2023-03-30T11:41:26.840Z,21.53
2023-03-30T11:43:53.171Z,21.51
2023-03-30T11:46:19.683Z,21.47
2023-03-30T11:48:46.167Z,21.44
2023-03-30T11:51:12.550Z,21.41
2023-03-30T11:53:38.847Z,21.39
2023-03-30T11:56:05.406Z,21.37
2023-03-30T11:58:31.941Z,21.35
2023-03-30T12:00:58.414Z,21.35
2023-03-30T12:03:24.960Z,21.37
2023-03-30T12:05:52.658Z,21.38
2023-03-30T12:08:19.033Z,21.41
2023-03-30T12:10:45.384Z,21.43
2023-03-30T12:13:11.695Z,21.42
2023-03-30T12:15:38.060Z,21.41
2023-03-30T12:18:04.422Z,21.42
2023-03-30T12:20:34.004Z,21.41
2023-03-30T12:23:00.495Z,21.40
2023-03-30T12:25:28.111Z,21.38
2023-03-30T12:27:54.480Z,21.42
2023-03-30T12:30:20.939Z,21.44
2023-03-30T12:32:47.399Z,21.43
2023-03-30T12:35:13.745Z,21.43
2023-03-30T12:37:40.093Z,21.43
2023-03-30T12:40:06.812Z,21.44
2023-03-30T12:42:33.662Z,21.47
2023-03-30T12:45:00.139Z,21.50
2023-03-30T12:47:27.219Z,21.54
2023-03-30T12:49:53.893Z,21.55
2023-03-30T12:52:20.261Z,21.56
2023-03-30T12:54:46.557Z,21.55
2023-03-30T12:57:12.918Z,21.53
2023-03-30T12:59:39.274Z,21.54
2023-03-30T13:02:05.652Z,21.50
2023-03-30T13:04:33.309Z,21.50
2023-03-30T13:07:00.078Z,21.52
2023-03-30T13:09:26.521Z,21.54
2023-03-30T13:11:52.958Z,21.54
2023-03-30T13:14:19.429Z,21.54
2023-03-30T13:16:46.157Z,21.55
2023-03-30T13:19:12.694Z,21.54
2023-03-30T13:21:39.146Z,21.54
2023-03-30T13:24:05.603Z,21.53
2023-03-30T13:26:35.007Z,21.54
2023-03-30T13:29:01.949Z,21.54
2023-03-30T13:31:28.569Z,21.54
2023-03-30T13:33:55.071Z,21.53
2023-03-30T13:36:21.456Z,21.52
2023-03-30T13:38:48.068Z,21.53
2023-03-30T13:41:14.518Z,21.53
2023-03-30T13:43:41.015Z,21.52
2023-03-30T13:46:16.413Z,21.51
2023-03-30T13:48:43.629Z,21.51
2023-03-30T13:51:10.048Z,21.54
2023-03-30T13:53:36.362Z,21.56
2023-03-30T13:56:03.007Z,21.58
2023-03-30T13:58:29.561Z,21.60
2023-03-30T14:00:58.915Z,21.61
2023-03-30T14:03:25.330Z,21.62
2023-03-30T14:05:51.607Z,21.60
2023-03-30T14:08:17.900Z,21.59
2023-03-30T14:10:44.192Z,21.60
2023-03-30T14:13:10.630Z,21.60
2023-03-30T14:15:36.982Z,21.62
2023-03-30T14:18:03.798Z,21.62
2023-03-30T14:20:30.413Z,21.62
2023-03-30T14:22:56.807Z,21.61
2023-03-30T14:25:23.178Z,21.59
2023-03-30T14:27:49.541Z,21.59
2023-03-30T14:30:15.946Z,21.61
2023-03-30T14:32:42.399Z,21.63
2023-03-30T14:35:08.940Z,21.65
2023-03-30T14:37:35.264Z,21.65
2023-03-30T14:40:01.661Z,21.62
2023-03-30T14:42:28.184Z,21.62
2023-03-30T14:44:54.576Z,21.60
2023-03-30T14:47:21.002Z,21.60
2023-03-30T14:49:47.489Z,21.59
2023-03-30T14:52:13.824Z,21.58
2023-03-30T14:54:42.053Z,21.58
2023-03-30T14:57:13.008Z,21.60
2023-03-30T14:59:39.893Z,21.58
2023-03-30T15:02:06.593Z,21.58
2023-03-30T15:04:32.924Z,21.57
2023-03-30T15:06:59.327Z,21.57
2023-03-30T15:09:25.711Z,21.53
2023-03-30T15:11:52.155Z,21.51
2023-03-30T15:14:18.474Z,21.50
2023-03-30T15:16:44.969Z,21.49
2023-03-30T15:19:12.533Z,21.49
2023-03-30T15:21:38.921Z,21.49
2023-03-30T15:24:05.214Z,21.50
2023-03-30T15:26:31.756Z,21.53
2023-03-30T15:28:58.586Z,21.54
2023-03-30T15:31:24.905Z,21.55
2023-03-30T15:33:51.240Z,21.59
2023-03-30T15:36:18.057Z,21.61
2023-03-30T15:38:44.400Z,21.61
2023-03-30T15:41:10.808Z,21.59
2023-03-30T15:43:37.416Z,21.58
2023-03-30T15:46:03.807Z,21.58
2023-03-30T15:48:32.050Z,21.57
2023-03-30T15:50:58.685Z,21.58
2023-03-30T15:53:27.852Z,21.58
2023-03-30T15:55:54.143Z,21.58
2023-03-30T15:58:20.532Z,21.58
2023-03-30T16:00:47.061Z,21.58
2023-03-30T16:03:13.744Z,21.56
2023-03-30T16:05:40.445Z,21.55
2023-03-30T16:08:06.838Z,21.53
2023-03-30T16:10:33.423Z,21.52
2023-03-30T16:13:00.606Z,21.50
2023-03-30T16:15:27.222Z,21.49
2023-03-30T16:17:53.795Z,21.49
2023-03-30T16:20:20.321Z,21.47
2023-03-30T16:22:47.260Z,21.47
2023-03-30T16:25:14.157Z,21.44
2023-03-30T16:27:40.586Z,21.44
2023-03-30T16:30:06.970Z,21.43
2023-03-30T16:32:35.838Z,21.42
2023-03-30T16:35:02.262Z,21.41
2023-03-30T16:37:28.534Z,21.40
2023-03-30T16:39:54.778Z,21.39
2023-03-30T16:42:21.137Z,21.37
2023-03-30T16:44:47.385Z,21.36
2023-03-30T16:47:13.674Z,21.34
2023-03-30T16:49:39.917Z,21.33
2023-03-30T16:52:06.190Z,21.31
2023-03-30T16:54:33.163Z,21.28
2023-03-30T16:56:59.854Z,21.24
2023-03-30T16:59:26.249Z,21.23
2023-03-30T17:01:52.580Z,21.20
2023-03-30T17:04:19.049Z,21.19
2023-03-30T17:06:45.418Z,21.17
2023-03-30T17:09:11.695Z,21.16
2023-03-30T17:11:37.972Z,21.14
2023-03-30T17:14:04.222Z,21.12
2023-03-30T17:16:30.546Z,21.03
2023-03-30T17:18:56.993Z,21.08
2023-03-30T17:21:23.260Z,21.06
2023-03-30T17:23:49.593Z,21.04
2023-03-30T17:26:15.998Z,21.03
2023-03-30T17:28:42.361Z,21.01
2023-03-30T17:31:11.153Z,20.99
2023-03-30T17:33:37.743Z,20.98
2023-03-30T17:36:04.156Z,20.95
2023-03-30T17:38:30.659Z,20.93
2023-03-30T17:40:57.195Z,20.91
2023-03-30T17:43:23.658Z,20.90
2023-03-30T17:45:50.840Z,20.86
2023-03-30T17:48:17.326Z,20.86
2023-03-30T17:50:43.808Z,20.85
2023-03-30T17:53:10.334Z,20.85
2023-03-30T17:55:36.645Z,20.85
2023-03-30T17:58:02.986Z,20.83
2023-03-30T18:00:30.070Z,20.83
2023-03-30T18:02:56.390Z,20.83
2023-03-30T18:05:22.720Z,20.83
2023-03-30T18:07:50.139Z,20.83
2023-03-30T18:10:16.517Z,20.83
2023-03-30T18:12:42.862Z,20.83
2023-03-30T18:15:09.195Z,20.83
2023-03-30T18:17:35.721Z,20.82
2023-03-30T18:20:02.100Z,20.82
2023-03-30T18:22:35.578Z,20.83
2023-03-30T18:25:01.852Z,20.82
2023-03-30T18:27:28.112Z,20.82
2023-03-30T18:29:54.380Z,20.82
2023-03-30T18:32:20.698Z,20.80
2023-03-30T18:34:47.130Z,20.80
2023-03-30T18:37:14.016Z,20.80
2023-03-30T18:39:40.305Z,20.79
2023-03-30T18:42:06.543Z,20.79
2023-03-30T18:44:33.291Z,20.79
2023-03-30T18:47:02.721Z,20.79
2023-03-30T18:49:31.549Z,20.77
2023-03-30T18:51:58.056Z,20.76
2023-03-30T18:54:24.517Z,20.76
2023-03-30T18:56:51.192Z,20.74
2023-03-30T18:59:17.763Z,20.73
2023-03-30T19:01:44.171Z,20.74
2023-03-30T19:04:10.604Z,20.72
2023-03-30T19:06:37.020Z,20.71
2023-03-30T19:09:03.311Z,20.70
2023-03-30T19:11:29.719Z,20.69
2023-03-30T19:13:56.034Z,20.68
2023-03-30T19:16:23.308Z,20.66
2023-03-30T19:18:49.782Z,20.66
2023-03-30T19:21:16.090Z,20.64
2023-03-30T19:23:42.446Z,20.65
2023-03-30T19:26:08.739Z,20.63
2023-03-30T19:28:35.005Z,20.63
2023-03-30T19:31:01.436Z,20.61
2023-03-30T19:33:27.888Z,20.61
2023-03-30T19:35:54.543Z,20.60
2023-03-30T19:38:20.814Z,20.59
2023-03-30T19:40:47.042Z,20.58
2023-03-30T19:43:13.322Z,20.58
2023-03-30T19:45:39.578Z,20.56
2023-03-30T19:48:05.941Z,20.57
2023-03-30T19:50:32.454Z,20.55
2023-03-30T19:52:58.880Z,20.54
2023-03-30T19:55:25.229Z,20.52
2023-03-30T19:57:51.472Z,20.50
2023-03-30T20:00:17.877Z,20.49
2023-03-30T20:02:44.290Z,20.49
2023-03-30T20:05:10.676Z,20.48
2023-03-30T20:07:36.992Z,20.47
2023-03-30T20:10:08.246Z,20.45
2023-03-30T20:15:32.499Z,20.43
2023-03-30T20:20:44.163Z,20.43
2023-03-30T20:23:10.750Z,20.43
2023-03-30T20:25:37.066Z,20.43
2023-03-30T20:28:03.519Z,20.44
2023-03-30T20:33:54.946Z,20.46
2023-03-30T20:36:21.324Z,20.46
2023-03-30T20:39:06.372Z,20.47
2023-03-30T20:44:43.823Z,20.50
2023-03-30T20:47:10.227Z,20.52
2023-03-30T20:52:27.700Z,20.54
2023-03-30T20:54:54.036Z,20.54
2023-03-30T20:57:20.651Z,20.54
2023-03-30T20:59:47.936Z,20.54
2023-03-30T21:02:14.673Z,20.55
2023-03-30T21:04:41.057Z,20.54
2023-03-30T21:07:07.431Z,20.54
2023-03-30T21:09:34.093Z,20.53
2023-03-30T21:12:00.697Z,20.53
2023-03-30T21:14:27.212Z,20.52
2023-03-30T21:16:54.073Z,20.52
2023-03-30T21:22:46.515Z,20.46
2023-03-30T21:25:31.607Z,20.38
2023-03-30T21:27:58.060Z,20.29
2023-03-30T21:30:24.442Z,20.21
2023-03-30T21:32:50.750Z,20.13
2023-03-30T21:35:17.076Z,20.07
2023-03-30T21:37:47.171Z,20.01
2023-03-30T21:40:13.524Z,19.95
2023-03-30T21:42:42.503Z,19.89
2023-03-30T21:45:09.692Z,19.83
2023-03-30T21:47:36.390Z,19.79
2023-03-30T21:50:03.151Z,19.74
2023-03-30T21:52:29.927Z,19.69
2023-03-30T21:54:57.542Z,19.66
2023-03-30T21:57:33.106Z,19.62
2023-03-30T22:00:08.481Z,19.57
2023-03-30T22:02:35.727Z,19.53
2023-03-30T22:05:11.950Z,19.49
2023-03-30T22:07:44.188Z,19.39
2023-03-30T22:10:10.722Z,19.42
2023-03-30T22:15:49.152Z,19.34
2023-03-30T22:18:15.532Z,19.31
2023-03-30T22:20:42.163Z,19.28
2023-03-30T22:23:08.536Z,19.26
2023-03-30T22:25:34.892Z,19.22
2023-03-30T22:28:01.323Z,19.18
2023-03-30T22:30:27.755Z,19.15
2023-03-30T22:32:54.152Z,19.12
2023-03-30T22:35:20.473Z,19.08
2023-03-30T22:37:47.007Z,19.05
2023-03-30T22:40:13.338Z,19.02
2023-03-30T22:42:39.752Z,18.98
2023-03-30T22:45:06.233Z,18.96
2023-03-30T22:47:33.093Z,18.92
2023-03-30T22:49:59.441Z,18.91
2023-03-30T22:55:27.186Z,18.84
2023-03-30T22:57:55.740Z,18.82
2023-03-30T23:00:22.098Z,18.79
2023-03-30T23:02:48.573Z,18.78
2023-03-30T23:05:14.995Z,18.74
2023-03-30T23:07:41.377Z,18.72
2023-03-30T23:10:07.747Z,18.69
2023-03-30T23:12:34.078Z,18.67
2023-03-30T23:15:00.401Z,18.65
2023-03-30T23:17:26.791Z,18.62
2023-03-30T23:19:53.112Z,18.60
2023-03-30T23:22:20.465Z,18.59
2023-03-30T23:24:47.140Z,18.57
2023-03-30T23:27:13.923Z,18.59
2023-03-30T23:29:40.284Z,18.61
2023-03-30T23:32:06.619Z,18.63
2023-03-30T23:34:32.896Z,18.62
2023-03-30T23:36:59.212Z,18.59
2023-03-30T23:39:25.576Z,18.47
2023-03-30T23:41:51.935Z,18.52
2023-03-30T23:44:18.544Z,18.49
2023-03-30T23:46:44.949Z,18.47
2023-03-30T23:49:11.284Z,18.46
2023-03-30T23:51:37.682Z,18.44
2023-03-30T23:54:04.609Z,18.42
2023-03-30T23:56:30.924Z,18.40
2023-03-30T23:58:57.454Z,18.37
